• Join FlightAware (Why Join?)
  • Login
  • US Flag 
09:10AM EDT


 

Airport Tracker/Info


-or-


 

Live Flight TrackerFlight Track Log ✈ EJA396 ✈ 22-Apr-2013 ✈ KSDL - KPWM

Flight Track Log - Related Links

Times and Time Zones

All times are in EDT time to prevent confusion due to time zone crossing. See the EJA396 flight status page for this flight to view local times or setup timezone preferences in your user account.

Time Position Orientation Groundspeed Altitude Reporting Facility
EDT Latitude Longitude Course Direction KTS MPH feet Rate Location/Type
03:13PM 33.6167 -111.9333 276° West 177 204 2,600  Level Phoenix TRACON
03:14PM 33.6208 -111.9808 276° West 213 245 4,400 1,920 Climbing Albuquerque Center
03:15PM 33.6656 -112.0200 324° Northwest 231 266 6,400 2,580 Climbing Albuquerque Center
03:16PM 33.7108 -111.9403 56° Northeast 254 292 9,800 3,120 Climbing Albuquerque Center
03:17PM 33.7317 -111.8469 75° East 298 343 12,800 2,760 Climbing Albuquerque Center
03:18PM 33.7236 -111.7419 95° East 320 368 15,600 2,520 Climbing Albuquerque Center
03:19PM 33.7158 -111.6278 95° East 345 397 18,100 2,700 Climbing Albuquerque Center
03:20PM 33.7044 -111.4836 95° East 363 418 21,200 2,460 Climbing Albuquerque Center
03:22PM 33.6944 -111.3550 95° East 385 443 23,300 1,980 Climbing Albuquerque Center
03:23PM 33.7069 -111.2211 84° East 412 474 25,300 1,920 Climbing Albuquerque Center
03:24PM 33.7511 -111.0933 67° East 416 479 27,300 1,740 Climbing Albuquerque Center
03:25PM 33.7964 -110.9619 67° East 426 490 28,900 1,500 Climbing Albuquerque Center
03:26PM 33.8444 -110.8278 67° East 435 501 30,500 1,680 Climbing Albuquerque Center
03:27PM 33.9000 -110.6661 67° East 439 505 32,400 1,680 Climbing Albuquerque Center
03:28PM 33.9478 -110.5306 67° East 440 506 34,000 1,440 Climbing Albuquerque Center
03:29PM 33.9956 -110.3947 67° East 441 507 35,400 1,260 Climbing Albuquerque Center
03:30PM 34.0411 -110.2675 67° East 442 509 36,700 1,320 Climbing Albuquerque Center
03:31PM 34.0969 -110.1067 67° East 438 504 38,200 1,440 Climbing Albuquerque Center
03:32PM 34.1431 -109.9703 68° East 429 494 39,700 960 Climbing Albuquerque Center
03:33PM 34.1861 -109.8472 67° East 421 484 40,300 480 Climbing Albuquerque Center
03:34PM 34.2369 -109.6992 67° East 425 489 40,800 300 Climbing Albuquerque Center
03:35PM 34.2806 -109.5678 68° East 433 498 41,000 60 Climbing Albuquerque Center
03:36PM 34.3342 -109.4122 67° East 443 510 41,000  Level Albuquerque Center
03:37PM 34.3822 -109.2750 67° East 455 524 41,000  Level Albuquerque Center
03:38PM 34.4364 -109.1053 69° East 472 543 41,000  Level Albuquerque Center
03:39PM 34.4772 -108.9581 71° East 478 550 41,000  Level Albuquerque Center
03:40PM 34.5244 -108.7856 72° East 482 555 41,000  Level Albuquerque Center
03:41PM 34.5653 -108.6364 72° East 484 557 41,000  Level Albuquerque Center
03:42PM 34.6119 -108.4597 72° East 489 563 41,000  Level Albuquerque Center
03:43PM 34.6550 -108.3039 71° East 489 563 41,000  Level Albuquerque Center
03:44PM 34.6978 -108.1461 72° East 489 563 41,000  Level Albuquerque Center
03:45PM 34.7378 -107.9900 73° East 487 560 41,000  Level Albuquerque Center
03:46PM 34.7803 -107.8331 72° East 488 562 41,000  Level Albuquerque Center
03:47PM 34.8222 -107.6750 72° East 489 563 41,000  Level Albuquerque Center
03:48PM 34.8639 -107.5167 72° East 492 566 41,000  Level Albuquerque Center
03:49PM 34.9047 -107.3594 72° East 489 563 41,000  Level Albuquerque Center
03:50PM 34.9508 -107.1811 72° East 491 565 41,000  Level Albuquerque Center
03:51PM 34.9972 -107.0031 72° East 493 567 41,000  Level Albuquerque Center
03:52PM 35.0358 -106.8514 73° East 489 563 41,000  Level Albuquerque Center
03:54PM 35.0939 -106.6853 67° East 479 551 41,000  Level Albuquerque Center
03:55PM 35.1519 -106.5331 65° Northeast 485 558 41,000  Level Albuquerque Center
03:56PM 35.2042 -106.3864 66° East 485 558 41,000  Level Albuquerque Center
03:57PM 35.2586 -106.2372 66° East 483 556 41,000  Level Albuquerque Center
03:58PM 35.3161 -106.0794 66° East 482 555 41,000  Level Albuquerque Center
03:59PM 35.3683 -105.9378 66° East 485 558 41,000  Level Albuquerque Center
04:00PM 35.4319 -105.7717 65° Northeast 497 572 41,000  Level Albuquerque Center
04:01PM 35.4942 -105.5944 67° East 486 559 41,000  Level Albuquerque Center
04:02PM 35.5464 -105.4436 67° East 478 550 41,000  Level Albuquerque Center
04:03PM 35.6003 -105.2894 67° East 483 556 41,000  Level Albuquerque Center
04:04PM 35.6578 -105.1322 66° East 493 567 41,000  Level Albuquerque Center
04:05PM 35.7128 -104.9767 66° East 493 567 41,000  Level Albuquerque Center
04:06PM 35.7689 -104.8192 66° East 495 570 41,000  Level Albuquerque Center
04:07PM 35.8247 -104.6606 66° East 497 572 41,000  Level Albuquerque Center
04:08PM 35.8803 -104.5028 66° East 496 571 41,000  Level Albuquerque Center
04:09PM 35.9356 -104.3444 67° East 495 570 41,000  Level Albuquerque Center
04:10PM 35.9908 -104.1861 67° East 496 571 41,000  Level Albuquerque Center
04:11PM 36.0533 -104.0042 67° East 490 564 41,000  Level Albuquerque Center
04:12PM 36.1072 -103.8478 67° East 489 563 41,000  Level Albuquerque Center
04:13PM 36.1611 -103.6958 66° East 481 554 41,000  Level Albuquerque Center
04:14PM 36.2128 -103.5431 67° East 477 549 41,000  Level Albuquerque Center
04:15PM 36.2642 -103.3889 68° East 478 550 41,000  Level Albuquerque Center
04:16PM 36.3158 -103.2350 67° East 480 552 41,000  Level Albuquerque Center
04:17PM 36.3658 -103.0794 68° East 481 554 41,000  Level Albuquerque Center
04:18PM 36.4183 -102.9261 67° East 478 550 41,000  Level Albuquerque Center
04:19PM 36.4697 -102.7686 68° East 478 550 41,000  Level Albuquerque Center
04:20PM 36.5197 -102.6164 68° East 476 548 41,000  Level Albuquerque Center
04:21PM 36.5800 -102.4333 68° East 477 549 41,000  Level Albuquerque Center
04:22PM 36.6289 -102.2789 68° East 478 550 41,000  Level Albuquerque Center
04:23PM 36.6786 -102.1325 67° East 477 549 41,000  Level Albuquerque Center
04:24PM 36.7317 -101.9625 69° East 474 545 41,000  Level Albuquerque Center
04:26PM 36.7778 -101.8172 68° East 471 542 41,000  Level Albuquerque Center
04:27PM 36.8319 -101.6486 68° East 472 543 41,000  Level Albuquerque Center
04:28PM 36.8783 -101.5031 68° East 472 543 41,000  Level Albuquerque Center
04:29PM 36.9542 -101.2589 69° East 473 544 41,000  Level Kansas City Center
04:30PM 37.0072 -101.0897 69° East 471 542 41,000  Level Kansas City Center
04:31PM 37.0508 -100.9422 70° East 473 544 41,000  Level Kansas City Center
04:32PM 37.0908 -100.7631 74° East 480 552 41,000  Level Kansas City Center
04:33PM 37.1244 -100.6097 75° East 481 554 41,000  Level Kansas City Center
04:34PM 37.1636 -100.4286 75° East 484 557 41,000  Level Kansas City Center
04:35PM 37.1972 -100.2753 75° East 482 555 41,000  Level Kansas City Center
04:36PM 37.2356 -100.0947 75° East 482 555 41,000  Level Kansas City Center
04:37PM 37.2692 -99.9372 75° East 487 560 41,000  Level Kansas City Center
04:39PM 37.3086 -99.7544 75° East 487 560 41,000  Level Kansas City Center
04:40PM 37.3397 -99.5994 76° East 484 557 41,000  Level Kansas City Center
04:41PM 37.3761 -99.4325 75° East 485 558 41,000  Level Kansas City Center
04:42PM 37.4131 -99.2694 74° East 486 559 41,000  Level Kansas City Center
04:43PM 37.4458 -99.1061 76° East 483 556 41,000  Level Kansas City Center
04:44PM 37.4756 -98.9389 77° East 490 564 41,000  Level Kansas City Center
04:45PM 37.5161 -98.7411 75° East 487 560 41,000  Level Kansas City Center
04:46PM 37.5500 -98.5764 75° East 487 560 41,000  Level Kansas City Center
04:47PM 37.5825 -98.4125 76° East 485 558 41,000  Level Kansas City Center
04:48PM 37.6167 -98.2500 75° East 483 556 41,000  Level Kansas City Center
04:49PM 37.6511 -98.0658 77° East 478 550 41,000  Level Kansas City Center
04:50PM 37.6828 -97.8992 76° East 482 555 41,000  Level Kansas City Center
04:51PM 37.7156 -97.7322 76° East 487 560 41,000  Level Kansas City Center
04:52PM 37.7475 -97.5647 76° East 488 562 41,000  Level Kansas City Center
04:53PM 37.7806 -97.3969 76° East 501 577 41,000  Level Kansas City Center
04:54PM 37.8108 -97.2283 77° East 496 571 41,000  Level Kansas City Center
04:55PM 37.8475 -97.0244 77° East 497 572 41,000  Level Kansas City Center
04:56PM 37.8781 -96.8536 77° East 498 573 41,000  Level Kansas City Center
04:57PM 37.9083 -96.6825 77° East 500 575 41,000  Level Kansas City Center
04:58PM 37.9375 -96.5122 78° East 496 571 41,000  Level Kansas City Center
04:59PM 37.9664 -96.3386 78° East 503 579 41,000  Level Kansas City Center
05:00PM 37.9936 -96.1681 79° East 497 572 41,000  Level Kansas City Center
05:01PM 38.0272 -95.9675 78° East 493 567 41,000  Level Kansas City Center
05:02PM 38.0542 -95.8053 78° East 494 568 41,000  Level Kansas City Center
05:03PM 38.0875 -95.6169 77° East 492 566 41,000  Level Kansas City Center
05:04PM 38.1153 -95.4531 78° East 495 570 41,000  Level Kansas City Center
05:05PM 38.1478 -95.2642 78° East 494 568 41,000  Level Kansas City Center
05:06PM 38.1761 -95.1003 78° East 496 571 41,000  Level Kansas City Center
05:07PM 38.2061 -94.9122 78° East 491 565 41,000  Level Kansas City Center
05:08PM 38.2325 -94.7439 79° East 498 573 41,000  Level Kansas City Center
05:10PM 38.2636 -94.5522 78° East 500 575 41,000  Level Kansas City Center
05:11PM 38.3086 -94.3944 70° East 502 578 41,000  Level Kansas City Center
05:12PM 38.3725 -94.2211 65° Northeast 492 566 41,000  Level Kansas City Center
05:13PM 38.4286 -94.0658 65° Northeast 484 557 41,000  Level Kansas City Center
05:14PM 38.4889 -93.9022 65° Northeast 480 552 41,000  Level Kansas City Center
05:15PM 38.5406 -93.7553 66° East 480 552 41,000  Level Kansas City Center
05:16PM 38.5975 -93.5992 65° Northeast 480 552 41,000  Level Kansas City Center
05:17PM 38.6533 -93.4433 65° Northeast 479 551 41,000  Level Kansas City Center
05:18PM 38.7094 -93.2864 65° Northeast 480 552 41,000  Level Kansas City Center
05:19PM 38.7764 -93.0972 66° East 482 555 41,000  Level Kansas City Center
05:20PM 38.8317 -92.9403 66° East 482 555 41,000  Level Kansas City Center
05:21PM 38.8883 -92.7800 66° East 485 558 41,000  Level Kansas City Center
05:22PM 38.9433 -92.6228 66° East 483 556 41,000  Level Kansas City Center
05:23PM 38.9975 -92.4661 66° East 479 551 41,000  Level Kansas City Center
05:24PM 39.0514 -92.3117 66° East 476 548 41,000  Level Kansas City Center
05:25PM 39.1056 -92.1556 66° East 475 547 41,000  Level Kansas City Center
05:26PM 39.1558 -91.9933 68° East 479 551 41,000  Level Kansas City Center
05:27PM 39.2136 -91.8014 69° East 478 550 41,000  Level Kansas City Center
05:28PM 39.2561 -91.6642 68° East 478 550 41,000  Level Kansas City Center
05:29PM 39.3061 -91.5025 68° East 482 555 41,000  Level Kansas City Center
05:30PM 39.3544 -91.3436 68° East 479 551 41,000  Level Kansas City Center
05:31PM 39.4111 -91.1503 69° East 478 550 41,000  Level Kansas City Center
05:32PM 39.4592 -90.9900 69° East 477 549 41,000  Level Kansas City Center
05:33PM 39.5081 -90.8264 69° East 482 555 41,000  Level Kansas City Center
05:34PM 39.5556 -90.6642 69° East 482 555 41,000  Level Kansas City Center
05:35PM 39.6025 -90.5036 69° East 478 550 41,000  Level Kansas City Center
05:36PM 39.6492 -90.3433 69° East 476 548 41,000  Level Kansas City Center
05:37PM 39.6947 -90.1833 70° East 473 544 41,000  Level Kansas City Center
05:38PM 39.7467 -90.0047 69° East 471 542 41,000  Level Kansas City Center
05:39PM 39.7919 -89.8450 70° East 471 542 41,000  Level Kansas City Center
05:41PM 39.8367 -89.6850 70° East 472 543 41,000  Level Kansas City Center
05:42PM 39.8817 -89.4889 73° East 474 545 41,000  Level Kansas City Center
05:42PM 39.8961 -89.4239 74° East 477 549 41,000  Level Chicago Center
05:43PM 39.9186 -89.3239 74° East 477 549 41,000  Level Kansas City Center
05:44PM 39.9547 -89.1581 74° East 477 549 41,000  Level Kansas City Center
05:45PM 39.9917 -88.9931 74° East 477 549 41,000  Level Kansas City Center
05:46PM 40.0267 -88.8278 74° East 476 548 41,000  Level Kansas City Center
05:47PM 40.0622 -88.6622 74° East 475 547 41,000  Level Kansas City Center
05:48PM 40.1053 -88.4639 74° East 475 547 41,000  Level Kansas City Center
05:49PM 40.1433 -88.3006 73° East 473 544 41,000  Level Kansas City Center
05:49PM 40.1658 -88.2014 73° East 474 545 41,000  Level Chicago Center
05:50PM 40.2003 -88.0467 74° East 472 543 41,000  Level Chicago Center
05:51PM 40.2378 -87.8847 73° East 470 541 41,000  Level Chicago Center
05:52PM 40.2508 -87.8178 76° East 471 542 41,000  Level Indianapolis Center
05:53PM 40.2878 -87.6542 73° East 469 540 41,000  Level Indianapolis Center
05:53PM 40.3175 -87.5278 73° East 468 539 41,000  Level Chicago Center
05:54PM 40.3533 -87.3658 74° East 469 540 41,000  Level Chicago Center
05:56PM 40.3881 -87.2056 74° East 463 533 41,000  Level Chicago Center
05:57PM 40.4233 -87.0439 74° East 465 535 41,000  Level Chicago Center
05:58PM 40.4644 -86.8511 74° East 461 531 41,000  Level Chicago Center
05:59PM 40.4964 -86.7022 74° East 458 527 41,000  Level Chicago Center
06:00PM 40.5300 -86.5439 74° East 454 522 41,000  Level Chicago Center
06:01PM 40.5631 -86.3828 75° East 457 526 41,000  Level Chicago Center
06:02PM 40.6281 -86.2036 64° Northeast 462 532 41,000  Level Chicago Center
06:03PM 40.6914 -86.0608 60° Northeast 454 522 41,000  Level Chicago Center
06:04PM 40.7547 -85.9178 60° Northeast 455 524 41,000  Level Chicago Center
06:05PM 40.8186 -85.7761 59° Northeast 453 521 41,000  Level Chicago Center
06:06PM 40.8808 -85.6308 60° Northeast 457 526 41,000  Level Chicago Center
06:07PM 40.9442 -85.4883 59° Northeast 454 522 41,000  Level Chicago Center
06:08PM 40.9831 -85.2953 75° East 465 535 41,000  Level Chicago Center
06:09PM 41.0056 -85.1325 80° East 459 528 41,000  Level Chicago Center
06:10PM 41.0264 -84.9667 80° East 461 531 41,000  Level Chicago Center
06:11PM 41.0486 -84.7983 80° East 465 535 41,000  Level Chicago Center
06:12PM 41.0694 -84.6319 81° East 466 536 41,000  Level Chicago Center
06:13PM 41.0853 -84.5231 79° East 462 532 41,000  Level Cleveland Center
06:14PM 41.1056 -84.3533 81° East 462 532 41,000  Level Cleveland Center
06:14PM 41.1161 -84.2611 81° East 471 542 41,000  Level Chicago Center
06:15PM 41.1364 -84.0928 81° East 469 540 41,000  Level Chicago Center
06:16PM 41.1475 -84.0136 79° East 462 532 41,000  Level Cleveland Center
06:17PM 41.1650 -83.8436 82° East 461 531 41,000  Level Cleveland Center
06:18PM 41.1864 -83.6761 80° East 461 531 41,000  Level Cleveland Center
06:19PM 41.2075 -83.5061 81° East 466 536 41,000  Level Cleveland Center
06:20PM 41.2264 -83.3331 82° East 461 531 41,000  Level Cleveland Center
06:21PM 41.2422 -83.1956 81° East 466 536 41,000  Level Cleveland Center
06:22PM 41.2650 -83.0114 81° East 460 529 41,000  Level Cleveland Center
06:23PM 41.2831 -82.8406 82° East 466 536 41,000  Level Cleveland Center
06:24PM 41.3033 -82.6533 82° East 466 536 41,000  Level Cleveland Center
06:25PM 41.3231 -82.4825 81° East 466 536 41,000  Level Cleveland Center
06:26PM 41.3403 -82.3089 82° East 467 537 41,000  Level Cleveland Center
06:27PM 41.3656 -82.1408 79° East 462 532 41,000  Level Cleveland Center
06:28PM 41.4094 -81.9786 70° East 462 532 41,000  Level Cleveland Center
06:29PM 41.4572 -81.8161 69° East 468 539 41,000  Level Cleveland Center
06:30PM 41.5025 -81.6672 68° East 468 539 41,000  Level Cleveland Center
06:31PM 41.5456 -81.5042 71° East 468 539 41,000  Level Cleveland Center
06:32PM 41.5928 -81.3411 69° East 468 539 41,000  Level Cleveland Center
06:33PM 41.6375 -81.1750 70° East 468 539 41,000  Level Cleveland Center
06:34PM 41.6883 -80.9947 69° East 468 539 41,000  Level Cleveland Center
06:35PM 41.7344 -80.8281 70° East 468 539 41,000  Level Cleveland Center
06:36PM 41.7806 -80.6611 70° East 473 544 41,000  Level Cleveland Center
06:37PM 41.8267 -80.4939 70° East 468 539 41,000  Level Cleveland Center
06:38PM 41.8722 -80.3294 70° East 468 539 41,000  Level Cleveland Center
06:39PM 41.9156 -80.1619 71° East 468 539 41,000  Level Cleveland Center
06:40PM 41.9606 -79.9911 70° East 474 545 41,000  Level Cleveland Center
06:41PM 42.0014 -79.8400 70° East 474 545 41,000  Level Cleveland Center
06:42PM 42.0461 -79.6717 70° East 474 545 41,000  Level Cleveland Center
06:43PM 42.0903 -79.5003 71° East 474 545 41,000  Level Cleveland Center
06:44PM 42.1344 -79.3317 70° East 469 540 41,000  Level Cleveland Center
06:45PM 42.1783 -79.1597 71° East 469 540 41,000  Level Cleveland Center
06:46PM 42.2053 -78.9881 78° East 469 540 41,000  Level Cleveland Center
06:47PM 42.2297 -78.8108 79° East 469 540 41,000  Level Cleveland Center
06:48PM 42.2519 -78.6336 80° East 474 545 41,000  Level Cleveland Center
06:49PM 42.2739 -78.4561 80° East 474 545 41,000  Level Cleveland Center
06:50PM 42.2992 -78.2586 80° East 479 551 41,000  Level Cleveland Center
06:51PM 42.3206 -78.0811 81° East 484 557 41,000  Level Cleveland Center
06:52PM 42.3394 -77.9033 82° East 484 557 41,000  Level Cleveland Center
06:53PM 42.3622 -77.7253 80° East 484 557 41,000  Level Cleveland Center
06:54PM 42.3828 -77.5444 81° East 484 557 41,000  Level Cleveland Center
06:55PM 42.4028 -77.3661 81° East 484 557 41,000  Level Cleveland Center
06:56PM 42.4358 -77.0544 82° East 492 566 41,000  Level Boston Center
06:57PM 42.4575 -76.8758 81° East 492 566 41,000  Level Boston Center
06:58PM 42.4769 -76.6942 82° East 492 566 41,000  Level Boston Center
07:00PM 42.4939 -76.5150 83° East 480 552 41,000  Level Boston Center
07:01PM 42.5183 -76.2997 81° East 480 552 41,000  Level Boston Center
07:02PM 42.5367 -76.1175 82° East 480 552 41,000  Level Boston Center
07:03PM 42.5550 -75.9383 82° East 480 552 41,000  Level Boston Center
07:04PM 42.5731 -75.7558 82° East 480 552 41,000  Level Boston Center
07:05PM 42.5886 -75.5706 83° East 480 552 41,000  Level Boston Center
07:06PM 42.6103 -75.3856 81° East 485 558 41,000  Level Boston Center
07:07PM 42.6253 -75.2056 83° East 485 558 41,000  Level Boston Center
07:08PM 42.6419 -75.0228 83° East 485 558 41,000  Level Boston Center
07:09PM 42.6586 -74.8400 83° East 485 558 41,000  Level Boston Center
07:10PM 42.6747 -74.6597 83° East 480 552 41,000  Level Boston Center
07:11PM 42.6886 -74.4794 84° East 480 552 41,000  Level Boston Center
07:12PM 42.7269 -74.3028 73° East 480 552 41,000  Level Boston Center
07:13PM 42.7714 -74.1258 71° East 486 559 41,000  Level Boston Center
07:14PM 42.8133 -73.9514 72° East 491 565 41,000  Level Boston Center
07:15PM 42.8572 -73.7742 71° East 491 565 41,000  Level Boston Center
07:16PM 42.8967 -73.5992 73° East 486 559 41,000  Level Boston Center
07:17PM 42.9422 -73.4214 71° East 486 559 41,000 -300 Level Boston Center
07:18PM 42.9875 -73.2433 71° East 486 559 40,400 -1,140 Descending Boston Center
07:19PM 43.0300 -73.0706 71° East 486 559 38,800 -1,740 Descending Boston Center
07:20PM 43.0728 -72.8750 73° East 476 548 37,000 -1,980 Descending Boston Center
07:21PM 43.1150 -72.6933 72° East 488 562 34,900 -3,000 Descending Boston Center
07:22PM 43.1569 -72.5225 71° East 501 577 31,000 -3,300 Descending Boston Center
07:23PM 43.1964 -72.3433 73° East 506 582 28,400 -2,460 Descending Boston Center
07:24PM 43.2336 -72.1836 72° East 467 537 26,100 -2,280 Descending Boston Center
07:25PM 43.2667 -72.0325 73° East 432 497 23,900 -2,220 Descending Boston Center
07:26PM 43.3036 -71.8808 71° East 415 478 21,700 -2,160 Descending Boston Center
07:27PM 43.3339 -71.7408 73° East 402 463 19,600 -2,040 Descending Boston Center
07:28PM 43.3622 -71.6061 74° East 374 430 17,700 -2,100 Descending Boston Center
07:29PM 43.3944 -71.4628 73° East 362 417 15,400 -2,100 Descending Boston Center
07:30PM 43.4225 -71.3367 73° East 355 409 13,600 -1,680 Descending Boston Center
07:31PM 43.4483 -71.2161 74° East 335 386 12,100 -1,320 Descending Boston Center
07:32PM 43.4847 -71.1036 66° East 323 372 11,000 -600 Descending Boston Center
07:33PM 43.5147 -71.0028 68° East 302 348 11,000 -1,140 Level Boston Center
07:34PM 43.5447 -70.9075 66° East 270 311 8,800 -2,160 Descending Boston Center
07:35PM 43.5725 -70.8181 67° East 256 295 6,700 -2,220 Descending Boston Center
07:36PM 43.6006 -70.7369 64° Northeast 256 295 4,400 -2,220 Descending Boston Center
07:37PM 43.6283 -70.6444 67° East 244 281 2,300 -1,260 Descending Boston Center
07:38PM 43.6481 -70.5778 68° East 220 253 1,900 -300 Descending Boston Center
07:39PM 43.6617 -70.5086 75° East 174 200 1,800 -60 Descending Boston Center
07:40PM 43.6544 -70.4514 100° East 157 181 1,800 -300 Level Boston Center
07:41PM 43.6514 -70.4028 95° East 131 151 1,200 -600 Descending Boston Center
07:42PM 43.6489 -70.3714 96° East 98 113 700 11,400 Descending Boston Center
07:43PM 43.6481 -70.3283 92° East 93 107 24,000 11,640 Climbing Boston Center
07:44PM 43.6475 -70.2967 91° East 93 107 24,000  Level Boston Center
07:46PM 43.6333 -70.3000 101° East  Level FlightAware Approximate
07:53PM 43.6456 -70.3086 101° East  Level Estimated
07:54PM 43.6456 -70.3086 101° East  Level Estimated
07:55PM 43.6456 -70.3086 101° East  Level Estimated
07:56PM 43.6456 -70.3086 101° East  Level Estimated
07:57PM 43.6456 -70.3086 101° East  Level Estimated
07:58PM 43.6456 -70.3086 101° East  Level Estimated